sensor_id;sensor_type;location;lat;lon;timestamp;pressure;altitude;pressure_sealevel;temperature;humidity
33163;BME280;29282;45.656;11.302;2023-04-30T00:02:11;98297.63;;;18.10;55.12
33163;BME280;29282;45.656;11.302;2023-04-30T00:04:36;98310.53;;;18.10;54.95
33163;BME280;29282;45.656;11.302;2023-04-30T00:07:02;98307.78;;;18.10;54.92
33163;BME280;29282;45.656;11.302;2023-04-30T00:09:28;98307.78;;;18.10;54.94
33163;BME280;29282;45.656;11.302;2023-04-30T00:11:53;98316.00;;;18.10;54.83
33163;BME280;29282;45.656;11.302;2023-04-30T00:14:19;98316.00;;;18.10;54.86
33163;BME280;29282;45.656;11.302;2023-04-30T00:16:45;98319.53;;;18.10;54.84
33163;BME280;29282;45.656;11.302;2023-04-30T00:19:10;98321.50;;;18.10;54.85
33163;BME280;29282;45.656;11.302;2023-04-30T00:21:36;98322.28;;;18.10;54.87
33163;BME280;29282;45.656;11.302;2023-04-30T00:24:02;98329.72;;;18.10;54.88
33163;BME280;29282;45.656;11.302;2023-04-30T00:26:28;98323.44;;;18.09;55.08
33163;BME280;29282;45.656;11.302;2023-04-30T00:28:53;98321.50;;;18.10;54.95
33163;BME280;29282;45.656;11.302;2023-04-30T00:31:19;98328.91;;;18.09;54.83
33163;BME280;29282;45.656;11.302;2023-04-30T00:33:44;98328.91;;;18.09;54.78
33163;BME280;29282;45.656;11.302;2023-04-30T00:36:11;98327.31;;;18.08;54.94
33163;BME280;29282;45.656;11.302;2023-04-30T00:38:36;98328.13;;;18.08;54.78
33163;BME280;29282;45.656;11.302;2023-04-30T00:41:02;98321.84;;;18.08;54.89
33163;BME280;29282;45.656;11.302;2023-04-30T00:43:28;98320.22;;;18.07;54.75
33163;BME280;29282;45.656;11.302;2023-04-30T00:45:54;98319.91;;;18.08;54.76
33163;BME280;29282;45.656;11.302;2023-04-30T00:48:19;98319.09;;;18.08;54.98
33163;BME280;29282;45.656;11.302;2023-04-30T00:50:45;98321.84;;;18.08;54.79
33163;BME280;29282;45.656;11.302;2023-04-30T00:53:11;98311.97;;;18.07;54.87
33163;BME280;29282;45.656;11.302;2023-04-30T00:55:39;98316.34;;;18.08;54.75
33163;BME280;29282;45.656;11.302;2023-04-30T00:58:06;98310.03;;;18.07;54.86
33163;BME280;29282;45.656;11.302;2023-04-30T01:00:32;98312.78;;;18.07;54.75
33163;BME280;29282;45.656;11.302;2023-04-30T01:02:58;98304.56;;;18.07;54.73
33163;BME280;29282;45.656;11.302;2023-04-30T01:05:24;98305.69;;;18.06;54.66
33163;BME280;29282;45.656;11.302;2023-04-30T01:07:51;98291.19;;;18.06;54.86
33163;BME280;29282;45.656;11.302;2023-04-30T01:10:17;98295.53;;;18.07;54.70
33163;BME280;29282;45.656;11.302;2023-04-30T01:12:57;98298.63;;;18.05;54.72
33163;BME280;29282;45.656;11.302;2023-04-30T01:15:36;98302.16;;;18.06;54.75
33163;BME280;29282;45.656;11.302;2023-04-30T01:18:07;98303.75;;;18.07;54.75
33163;BME280;29282;45.656;11.302;2023-04-30T01:20:38;98308.44;;;18.06;54.65
33163;BME280;29282;45.656;11.302;2023-04-30T01:26:14;98314.28;;;18.05;54.75
33163;BME280;29282;45.656;11.302;2023-04-30T01:28:43;98315.88;;;18.06;54.79
33163;BME280;29282;45.656;11.302;2023-04-30T01:31:12;98318.63;;;18.06;54.66
33163;BME280;29282;45.656;11.302;2023-04-30T01:33:38;98313.94;;;18.06;54.76
33163;BME280;29282;45.656;11.302;2023-04-30T01:36:33;98311.53;;;18.05;54.78
33163;BME280;29282;45.656;11.302;2023-04-30T01:41:43;98308.78;;;18.05;54.69
33163;BME280;29282;45.656;11.302;2023-04-30T01:44:21;98313.44;;;18.04;54.73
33163;BME280;29282;45.656;11.302;2023-04-30T01:46:56;98313.13;;;18.06;54.66
33163;BME280;29282;45.656;11.302;2023-04-30T01:49:31;98313.44;;;18.04;54.81
33163;BME280;29282;45.656;11.302;2023-04-30T01:52:18;98321.66;;;18.04;54.68
33163;BME280;29282;45.656;11.302;2023-04-30T01:54:51;98319.75;;;18.05;54.66
33163;BME280;29282;45.656;11.302;2023-04-30T01:57:21;98321.66;;;18.04;54.60
33163;BME280;29282;45.656;11.302;2023-04-30T01:59:49;98321.66;;;18.04;54.62
33163;BME280;29282;45.656;11.302;2023-04-30T02:02:15;98318.94;;;18.04;54.60
33163;BME280;29282;45.656;11.302;2023-04-30T02:04:41;98320.88;;;18.04;54.74
33163;BME280;29282;45.656;11.302;2023-04-30T02:07:07;98320.88;;;18.04;54.69
33163;BME280;29282;45.656;11.302;2023-04-30T02:09:32;98312.66;;;18.04;54.74
33163;BME280;29282;45.656;11.302;2023-04-30T02:11:58;98318.94;;;18.04;54.62
33163;BME280;29282;45.656;11.302;2023-04-30T02:14:24;98318.13;;;18.04;54.70
33163;BME280;29282;45.656;11.302;2023-04-30T02:16:49;98317.31;;;18.03;54.56
33163;BME280;29282;45.656;11.302;2023-04-30T02:19:15;98317.31;;;18.03;54.56
33163;BME280;29282;45.656;11.302;2023-04-30T02:21:40;98313.78;;;18.03;54.54
33163;BME280;29282;45.656;11.302;2023-04-30T02:24:06;98313.78;;;18.03;54.70
33163;BME280;29282;45.656;11.302;2023-04-30T02:26:31;98313.78;;;18.03;54.54
33163;BME280;29282;45.656;11.302;2023-04-30T02:28:57;98317.31;;;18.03;54.52
33163;BME280;29282;45.656;11.302;2023-04-30T02:31:23;98311.03;;;18.03;54.49
33163;BME280;29282;45.656;11.302;2023-04-30T02:33:48;98307.50;;;18.02;54.61
33163;BME280;29282;45.656;11.302;2023-04-30T02:36:14;98313.00;;;18.02;54.59
33163;BME280;29282;45.656;11.302;2023-04-30T02:38:39;98309.44;;;18.02;54.49
33163;BME280;29282;45.656;11.302;2023-04-30T02:41:05;98313.00;;;18.02;54.68
33163;BME280;29282;45.656;11.302;2023-04-30T02:43:30;98314.94;;;18.02;54.64
33163;BME280;29282;45.656;11.302;2023-04-30T02:45:56;98305.06;;;18.01;54.60
33163;BME280;29282;45.656;11.302;2023-04-30T02:48:21;98309.44;;;18.02;54.67
33163;BME280;29282;45.656;11.302;2023-04-30T02:50:47;98302.34;;;18.01;54.68
33163;BME280;29282;45.656;11.302;2023-04-30T02:53:12;98308.66;;;18.01;54.52
33163;BME280;29282;45.656;11.302;2023-04-30T02:55:38;98304.75;;;18.02;54.60
33163;BME280;29282;45.656;11.302;2023-04-30T02:58:03;98299.59;;;18.01;54.47
33163;BME280;29282;45.656;11.302;2023-04-30T03:00:29;98291.38;;;18.01;54.52
33163;BME280;29282;45.656;11.302;2023-04-30T03:02:54;98294.13;;;18.01;54.59
33163;BME280;29282;45.656;11.302;2023-04-30T03:05:20;98293.00;;;18.02;54.52
33163;BME280;29282;45.656;11.302;2023-04-30T03:07:45;98290.56;;;18.00;54.51
33163;BME280;29282;45.656;11.302;2023-04-30T03:10:11;98287.84;;;18.00;54.47
33163;BME280;29282;45.656;11.302;2023-04-30T03:12:36;98294.47;;;17.99;54.53
33163;BME280;29282;45.656;11.302;2023-04-30T03:15:02;98292.50;;;18.00;54.50
33163;BME280;29282;45.656;11.302;2023-04-30T03:17:28;98287.03;;;18.00;54.59
33163;BME280;29282;45.656;11.302;2023-04-30T03:19:53;98288.63;;;18.01;54.51
33163;BME280;29282;45.656;11.302;2023-04-30T03:22:19;98292.50;;;18.00;54.57
33163;BME280;29282;45.656;11.302;2023-04-30T03:24:47;98291.72;;;17.99;54.55
33163;BME280;29282;45.656;11.302;2023-04-30T03:27:13;98291.72;;;17.99;54.37
33163;BME280;29282;45.656;11.302;2023-04-30T03:29:41;98296.41;;;17.99;54.32
33163;BME280;29282;45.656;11.302;2023-04-30T03:32:06;98288.19;;;17.99;54.57
33163;BME280;29282;45.656;11.302;2023-04-30T03:34:32;98288.19;;;17.99;54.51
33163;BME280;29282;45.656;11.302;2023-04-30T03:36:57;98283.50;;;17.99;54.40
33163;BME280;29282;45.656;11.302;2023-04-30T03:39:23;98283.50;;;17.99;54.43
33163;BME280;29282;45.656;11.302;2023-04-30T03:41:48;98288.19;;;17.99;54.42
33163;BME280;29282;45.656;11.302;2023-04-30T03:44:14;98285.44;;;17.99;54.43
33163;BME280;29282;45.656;11.302;2023-04-30T03:46:43;98282.69;;;17.99;54.49
33163;BME280;29282;45.656;11.302;2023-04-30T03:49:08;98285.44;;;17.99;54.27
33163;BME280;29282;45.656;11.302;2023-04-30T03:51:35;98281.91;;;17.98;54.32
33163;BME280;29282;45.656;11.302;2023-04-30T03:54:04;98273.66;;;17.98;54.33
33163;BME280;29282;45.656;11.302;2023-04-30T03:56:31;98279.16;;;17.98;54.36
33163;BME280;29282;45.656;11.302;2023-04-30T03:58:57;98276.41;;;17.98;54.37
33163;BME280;29282;45.656;11.302;2023-04-30T04:01:23;98278.31;;;17.98;54.26
33163;BME280;29282;45.656;11.302;2023-04-30T04:03:49;98274.78;;;17.97;54.29
33163;BME280;29282;45.656;11.302;2023-04-30T04:06:14;98279.16;;;17.98;54.39
33163;BME280;29282;45.656;11.302;2023-04-30T04:08:40;98278.31;;;17.98;54.42
33163;BME280;29282;45.656;11.302;2023-04-30T04:11:10;98276.41;;;17.98;54.27
33163;BME280;29282;45.656;11.302;2023-04-30T04:13:36;98278.31;;;17.98;54.19
33163;BME280;29282;45.656;11.302;2023-04-30T04:16:02;98275.59;;;17.98;54.37
33163;BME280;29282;45.656;11.302;2023-04-30T04:18:27;98280.28;;;17.97;54.23
33163;BME280;29282;45.656;11.302;2023-04-30T04:20:54;98270.94;;;17.98;54.20
33163;BME280;29282;45.656;11.302;2023-04-30T04:23:21;98272.03;;;17.97;54.50
33163;BME280;29282;45.656;11.302;2023-04-30T04:25:46;98275.59;;;17.98;54.20
33163;BME280;29282;45.656;11.302;2023-04-30T04:28:14;98275.59;;;17.98;54.27
33163;BME280;29282;45.656;11.302;2023-04-30T04:30:40;98283.00;;;17.97;54.36
33163;BME280;29282;45.656;11.302;2023-04-30T04:33:06;98285.75;;;17.97;54.18
33163;BME280;29282;45.656;11.302;2023-04-30T04:35:33;98288.50;;;17.97;54.21
33163;BME280;29282;45.656;11.302;2023-04-30T04:37:59;98291.22;;;17.97;54.20
33163;BME280;29282;45.656;11.302;2023-04-30T04:40:25;98293.19;;;17.97;54.19
33163;BME280;29282;45.656;11.302;2023-04-30T04:42:51;98304.16;;;17.97;54.35
33163;BME280;29282;45.656;11.302;2023-04-30T04:45:17;98308.03;;;17.96;54.22
33163;BME280;29282;45.656;11.302;2023-04-30T04:47:43;98306.56;;;17.98;54.22
33163;BME280;29282;45.656;11.302;2023-04-30T04:50:09;98306.88;;;17.97;54.16
33163;BME280;29282;45.656;11.302;2023-04-30T04:52:35;98306.88;;;17.97;54.17
33163;BME280;29282;45.656;11.302;2023-04-30T04:55:00;98308.81;;;17.96;54.19
33163;BME280;29282;45.656;11.302;2023-04-30T04:57:26;98310.75;;;17.96;54.20
33163;BME280;29282;45.656;11.302;2023-04-30T04:59:51;98317.84;;;17.97;54.20
33163;BME280;29282;45.656;11.302;2023-04-30T05:02:17;98315.44;;;17.95;54.20
33163;BME280;29282;45.656;11.302;2023-04-30T05:04:43;98317.84;;;17.97;54.22
33163;BME280;29282;45.656;11.302;2023-04-30T05:07:08;98317.03;;;17.96;54.21
33163;BME280;29282;45.656;11.302;2023-04-30T05:09:34;98318.19;;;17.95;54.21
33163;BME280;29282;45.656;11.302;2023-04-30T05:11:59;98320.94;;;17.95;54.25
33163;BME280;29282;45.656;11.302;2023-04-30T05:14:26;98317.03;;;17.96;54.18
33163;BME280;29282;45.656;11.302;2023-04-30T05:16:51;98325.28;;;17.96;54.20
33163;BME280;29282;45.656;11.302;2023-04-30T05:19:17;98322.88;;;17.95;54.30
33163;BME280;29282;45.656;11.302;2023-04-30T05:21:43;98320.94;;;17.95;54.36
33163;BME280;29282;45.656;11.302;2023-04-30T05:24:08;98321.72;;;17.96;54.31
33163;BME280;29282;45.656;11.302;2023-04-30T05:26:33;98324.47;;;17.96;54.13
33163;BME280;29282;45.656;11.302;2023-04-30T05:28:59;98325.63;;;17.95;54.30
33163;BME280;29282;45.656;11.302;2023-04-30T05:31:24;98327.22;;;17.96;54.31
33163;BME280;29282;45.656;11.302;2023-04-30T05:33:50;98327.22;;;17.96;54.21
33163;BME280;29282;45.656;11.302;2023-04-30T05:36:15;98332.69;;;17.96;54.45
33163;BME280;29282;45.656;11.302;2023-04-30T05:38:41;98332.69;;;17.96;54.04
33163;BME280;29282;45.656;11.302;2023-04-30T05:41:10;98339.78;;;17.97;54.13
33163;BME280;29282;45.656;11.302;2023-04-30T05:43:36;98335.75;;;17.94;54.18
33163;BME280;29282;45.656;11.302;2023-04-30T05:46:02;98339.31;;;17.95;54.27
33163;BME280;29282;45.656;11.302;2023-04-30T05:48:28;98342.06;;;17.95;54.13
33163;BME280;29282;45.656;11.302;2023-04-30T05:50:54;98336.59;;;17.95;54.15
33163;BME280;29282;45.656;11.302;2023-04-30T05:53:19;98339.31;;;17.95;54.17
33163;BME280;29282;45.656;11.302;2023-04-30T05:55:45;98345.91;;;17.94;54.17
33163;BME280;29282;45.656;11.302;2023-04-30T05:58:11;98338.50;;;17.94;54.35
33163;BME280;29282;45.656;11.302;2023-04-30T06:00:36;98347.53;;;17.95;54.30
33163;BME280;29282;45.656;11.302;2023-04-30T06:03:03;98348.66;;;17.94;54.25
33163;BME280;29282;45.656;11.302;2023-04-30T06:05:29;98341.22;;;17.94;54.36
33163;BME280;29282;45.656;11.302;2023-04-30T06:07:54;98347.53;;;17.95;54.18
33163;BME280;29282;45.656;11.302;2023-04-30T06:10:20;98353.03;;;17.95;54.30
33163;BME280;29282;45.656;11.302;2023-04-30T06:12:45;98349.47;;;17.94;54.25
33163;BME280;29282;45.656;11.302;2023-04-30T06:15:11;98338.50;;;17.94;54.21
33163;BME280;29282;45.656;11.302;2023-04-30T06:17:36;98350.28;;;17.95;54.23
33163;BME280;29282;45.656;11.302;2023-04-30T06:20:02;98351.41;;;17.94;54.28
33163;BME280;29282;45.656;11.302;2023-04-30T06:22:31;98346.72;;;17.94;54.21
33163;BME280;29282;45.656;11.302;2023-04-30T06:24:57;98353.03;;;17.95;54.19
33163;BME280;29282;45.656;11.302;2023-04-30T06:27:23;98353.03;;;17.95;54.33
33163;BME280;29282;45.656;11.302;2023-04-30T06:29:49;98351.41;;;17.94;54.20
33163;BME280;29282;45.656;11.302;2023-04-30T06:32:14;98353.03;;;17.95;54.13
33163;BME280;29282;45.656;11.302;2023-04-30T06:34:41;98356.56;;;17.95;54.23
33163;BME280;29282;45.656;11.302;2023-04-30T06:37:06;98355.09;;;17.98;54.10
33163;BME280;29282;45.656;11.302;2023-04-30T06:39:32;98357.16;;;18.01;54.07
33163;BME280;29282;45.656;11.302;2023-04-30T06:41:57;98354.09;;;18.02;54.00
33163;BME280;29282;45.656;11.302;2023-04-30T06:44:22;98356.50;;;18.04;54.20
33163;BME280;29282;45.656;11.302;2023-04-30T06:46:48;98363.63;;;18.05;54.07
33163;BME280;29282;45.656;11.302;2023-04-30T06:49:13;98360.53;;;18.06;54.13
33163;BME280;29282;45.656;11.302;2023-04-30T06:51:40;98359.72;;;18.06;54.10
33163;BME280;29282;45.656;11.302;2023-04-30T06:54:06;98369.56;;;18.07;53.94
33163;BME280;29282;45.656;11.302;2023-04-30T06:56:32;98375.03;;;18.07;54.13
33163;BME280;29282;45.656;11.302;2023-04-30T06:58:57;98377.47;;;18.08;53.95
33163;BME280;29282;45.656;11.302;2023-04-30T07:01:23;98378.28;;;18.09;54.18
33163;BME280;29282;45.656;11.302;2023-04-30T07:03:48;98374.38;;;18.10;54.14
33163;BME280;29282;45.656;11.302;2023-04-30T07:06:15;98380.66;;;18.11;54.21
33163;BME280;29282;45.656;11.302;2023-04-30T07:08:41;98386.94;;;18.11;54.08
33163;BME280;29282;45.656;11.302;2023-04-30T07:11:08;98389.69;;;18.11;54.24
33163;BME280;29282;45.656;11.302;2023-04-30T07:13:33;98391.31;;;18.12;54.02
33163;BME280;29282;45.656;11.302;2023-04-30T07:15:59;98395.66;;;18.13;54.15
33163;BME280;29282;45.656;11.302;2023-04-30T07:18:24;98403.09;;;18.13;54.20
33163;BME280;29282;45.656;11.302;2023-04-30T07:20:50;98404.22;;;18.12;54.21
33163;BME280;29282;45.656;11.302;2023-04-30T07:23:15;98408.56;;;18.13;54.34
33163;BME280;29282;45.656;11.302;2023-04-30T07:25:41;98405.84;;;18.13;54.34
33163;BME280;29282;45.656;11.302;2023-04-30T07:28:07;98418.41;;;18.14;54.41
33163;BME280;29282;45.656;11.302;2023-04-30T07:30:32;98417.59;;;18.13;54.31
33163;BME280;29282;45.656;11.302;2023-04-30T07:32:58;98416.47;;;18.14;54.32
33163;BME280;29282;45.656;11.302;2023-04-30T07:35:23;98418.41;;;18.14;54.25
33163;BME280;29282;45.656;11.302;2023-04-30T07:37:49;98423.56;;;18.15;54.50
33163;BME280;29282;45.656;11.302;2023-04-30T07:40:15;98430.31;;;18.18;54.31
33163;BME280;29282;45.656;11.302;2023-04-30T07:42:40;98434.19;;;18.17;54.33
33163;BME280;29282;45.656;11.302;2023-04-30T07:45:06;98436.63;;;18.18;54.36
33163;BME280;29282;45.656;11.302;2023-04-30T07:47:32;98440.97;;;18.19;54.26
33163;BME280;29282;45.656;11.302;2023-04-30T07:49:58;98451.94;;;18.19;54.23
33163;BME280;29282;45.656;11.302;2023-04-30T07:52:23;98450.00;;;18.20;54.31
33163;BME280;29282;45.656;11.302;2023-04-30T07:54:49;98451.59;;;18.21;54.27
33163;BME280;29282;45.656;11.302;2023-04-30T07:57:14;98454.34;;;18.21;54.47
33163;BME280;29282;45.656;11.302;2023-04-30T07:59:40;98453.22;;;18.22;54.36
33163;BME280;29282;45.656;11.302;2023-04-30T08:02:06;98459.16;;;18.24;54.29
33163;BME280;29282;45.656;11.302;2023-04-30T08:04:32;98459.97;;;18.24;54.46
33163;BME280;29282;45.656;11.302;2023-04-30T08:06:57;98467.88;;;18.26;54.59
33163;BME280;29282;45.656;11.302;2023-04-30T08:09:23;98467.09;;;18.25;54.51
33163;BME280;29282;45.656;11.302;2023-04-30T08:11:48;98470.63;;;18.26;54.64
33163;BME280;29282;45.656;11.302;2023-04-30T08:14:14;98475.75;;;18.27;54.70
33163;BME280;29282;45.656;11.302;2023-04-30T08:16:39;98481.75;;;18.29;54.69
33163;BME280;29282;45.656;11.302;2023-04-30T08:19:05;98477.41;;;18.28;54.71
33163;BME280;29282;45.656;11.302;2023-04-30T08:21:31;98470.94;;;18.24;54.93
33163;BME280;29282;45.656;11.302;2023-04-30T08:23:56;98475.97;;;18.22;54.89
33163;BME280;29282;45.656;11.302;2023-04-30T08:26:22;98479.03;;;18.21;55.19
33163;BME280;29282;45.656;11.302;2023-04-30T08:28:47;98479.34;;;18.19;55.27
33163;BME280;29282;45.656;11.302;2023-04-30T08:31:13;98482.91;;;18.20;54.94
33163;BME280;29282;45.656;11.302;2023-04-30T08:33:39;98481.63;;;18.17;55.15
33163;BME280;29282;45.656;11.302;2023-04-30T08:36:05;98480.81;;;18.17;55.15
33163;BME280;29282;45.656;11.302;2023-04-30T08:38:31;98487.91;;;18.18;55.27
33163;BME280;29282;45.656;11.302;2023-04-30T08:41:14;98487.44;;;18.16;55.25
33163;BME280;29282;45.656;11.302;2023-04-30T08:43:42;98484.69;;;18.16;55.34
33163;BME280;29282;45.656;11.302;2023-04-30T08:46:11;98483.91;;;18.15;55.35
33163;BME280;29282;45.656;11.302;2023-04-30T08:48:39;98491.31;;;18.15;55.16
33163;BME280;29282;45.656;11.302;2023-04-30T08:51:05;98485.50;;;18.16;55.50
33163;BME280;29282;45.656;11.302;2023-04-30T08:53:35;98496.63;;;18.20;55.26
33163;BME280;29282;45.656;11.302;2023-04-30T08:56:03;98491.28;;;18.23;55.40
33163;BME280;29282;45.656;11.302;2023-04-30T08:58:29;98490.13;;;18.24;55.15
33163;BME280;29282;45.656;11.302;2023-04-30T09:00:57;98492.56;;;18.26;55.32
33163;BME280;29282;45.656;11.302;2023-04-30T09:03:23;98497.72;;;18.27;55.17
33163;BME280;29282;45.656;11.302;2023-04-30T09:05:49;98501.59;;;18.26;55.08
33163;BME280;29282;45.656;11.302;2023-04-30T09:08:18;98501.28;;;18.28;55.28
33163;BME280;29282;45.656;11.302;2023-04-30T09:10:44;98503.19;;;18.27;55.08
33163;BME280;29282;45.656;11.302;2023-04-30T09:13:10;98505.94;;;18.27;55.24
33163;BME280;29282;45.656;11.302;2023-04-30T09:15:38;98504.81;;;18.28;55.22
33163;BME280;29282;45.656;11.302;2023-04-30T09:18:13;98510.31;;;18.28;55.25
33163;BME280;29282;45.656;11.302;2023-04-30T09:21:00;98503.69;;;18.29;55.28
33163;BME280;29282;45.656;11.302;2023-04-30T09:23:27;98504.81;;;18.28;55.12
33163;BME280;29282;45.656;11.302;2023-04-30T09:25:53;98503.69;;;18.29;55.21
33163;BME280;29282;45.656;11.302;2023-04-30T09:28:19;98506.44;;;18.29;55.17
33163;BME280;29282;45.656;11.302;2023-04-30T09:30:49;98500.94;;;18.29;55.25
33163;BME280;29282;45.656;11.302;2023-04-30T09:33:15;98501.75;;;18.30;55.28
33163;BME280;29282;45.656;11.302;2023-04-30T09:35:40;98505.28;;;18.30;55.32
33163;BME280;29282;45.656;11.302;2023-04-30T09:38:07;98498.69;;;18.31;55.25
33163;BME280;29282;45.656;11.302;2023-04-30T09:40:40;98502.53;;;18.30;55.12
33163;BME280;29282;45.656;11.302;2023-04-30T09:43:06;98505.28;;;18.30;55.35
33163;BME280;29282;45.656;11.302;2023-04-30T09:45:45;98500.94;;;18.29;55.00
33163;BME280;29282;45.656;11.302;2023-04-30T09:48:25;98494.31;;;18.30;55.19
33163;BME280;29282;45.656;11.302;2023-04-30T09:50:52;98499.78;;;18.30;55.23
33163;BME280;29282;45.656;11.302;2023-04-30T09:53:18;98480.59;;;18.30;55.30
33163;BME280;29282;45.656;11.302;2023-04-30T09:55:46;98488.50;;;18.32;55.54
33163;BME280;29282;45.656;11.302;2023-04-30T09:58:12;98481.44;;;18.31;55.13
33163;BME280;29282;45.656;11.302;2023-04-30T10:00:38;98484.97;;;18.31;55.43
33163;BME280;29282;45.656;11.302;2023-04-30T10:03:06;98479.47;;;18.31;55.36
33163;BME280;29282;45.656;11.302;2023-04-30T10:05:46;98484.97;;;18.31;55.25
33163;BME280;29282;45.656;11.302;2023-04-30T10:10:57;98483.81;;;18.33;55.34
33163;BME280;29282;45.656;11.302;2023-04-30T10:13:25;98484.63;;;18.33;55.42
33163;BME280;29282;45.656;11.302;2023-04-30T10:15:54;98481.09;;;18.33;55.41
33163;BME280;29282;45.656;11.302;2023-04-30T10:18:28;98483.81;;;18.33;55.47
33163;BME280;29282;45.656;11.302;2023-04-30T10:20:56;98482.22;;;18.31;55.25
33163;BME280;29282;45.656;11.302;2023-04-30T10:23:21;98475.59;;;18.33;55.32
33163;BME280;29282;45.656;11.302;2023-04-30T10:25:47;98475.94;;;18.31;55.33
33163;BME280;29282;45.656;11.302;2023-04-30T10:28:15;98470.47;;;18.31;55.24
33163;BME280;29282;45.656;11.302;2023-04-30T10:30:41;98482.53;;;18.30;55.14
33163;BME280;29282;45.656;11.302;2023-04-30T10:33:24;98467.22;;;18.29;55.23
33163;BME280;29282;45.656;11.302;2023-04-30T10:36:00;98465.63;;;18.28;55.09
33163;BME280;29282;45.656;11.302;2023-04-30T10:38:31;98475.75;;;18.27;55.36
33163;BME280;29282;45.656;11.302;2023-04-30T10:41:00;98466.75;;;18.27;55.23
33163;BME280;29282;45.656;11.302;2023-04-30T10:43:29;98461.59;;;18.25;55.19
33163;BME280;29282;45.656;11.302;2023-04-30T10:45:58;98456.09;;;18.25;55.15
33163;BME280;29282;45.656;11.302;2023-04-30T10:48:24;98453.38;;;18.25;55.07
33163;BME280;29282;45.656;11.302;2023-04-30T10:50:53;98454.97;;;18.26;55.13
33163;BME280;29282;45.656;11.302;2023-04-30T10:53:20;98451.91;;;18.28;55.11
33163;BME280;29282;45.656;11.302;2023-04-30T10:55:59;98451.91;;;18.28;55.08
33163;BME280;29282;45.656;11.302;2023-04-30T10:58:40;98454.66;;;18.28;55.19
33163;BME280;29282;45.656;11.302;2023-04-30T11:01:07;98451.09;;;18.27;55.08
33163;BME280;29282;45.656;11.302;2023-04-30T11:03:35;98449.16;;;18.28;55.05
33163;BME280;29282;45.656;11.302;2023-04-30T11:06:13;98455.44;;;18.28;55.12
33163;BME280;29282;45.656;11.302;2023-04-30T11:08:43;98453.81;;;18.27;55.21
33163;BME280;29282;45.656;11.302;2023-04-30T11:11:10;98453.81;;;18.27;55.18
33163;BME280;29282;45.656;11.302;2023-04-30T11:13:58;98447.22;;;18.28;55.27
33163;BME280;29282;45.656;11.302;2023-04-30T11:16:30;98443.69;;;18.28;55.11
33163;BME280;29282;45.656;11.302;2023-04-30T11:19:12;98445.59;;;18.27;55.38
33163;BME280;29282;45.656;11.302;2023-04-30T11:24:55;98446.44;;;18.28;55.30
33163;BME280;29282;45.656;11.302;2023-04-30T11:27:27;98444.00;;;18.26;55.43
33163;BME280;29282;45.656;11.302;2023-04-30T11:29:54;98452.38;;;18.30;55.36
33163;BME280;29282;45.656;11.302;2023-04-30T11:32:21;98449.16;;;18.28;55.21
33163;BME280;29282;45.656;11.302;2023-04-30T11:34:47;98441.75;;;18.28;55.23
33163;BME280;29282;45.656;11.302;2023-04-30T11:37:28;98447.22;;;18.28;55.45
33163;BME280;29282;45.656;11.302;2023-04-30T11:39:59;98448.34;;;18.27;55.42
33163;BME280;29282;45.656;11.302;2023-04-30T11:42:25;98442.84;;;18.27;55.45
33163;BME280;29282;45.656;11.302;2023-04-30T11:44:50;98441.25;;;18.26;55.38
33163;BME280;29282;45.656;11.302;2023-04-30T11:47:16;98446.75;;;18.26;55.45
33163;BME280;29282;45.656;11.302;2023-04-30T11:49:42;98437.38;;;18.27;55.46
33163;BME280;29282;45.656;11.302;2023-04-30T11:52:07;98444.78;;;18.27;55.51
33163;BME280;29282;45.656;11.302;2023-04-30T11:54:37;98446.75;;;18.26;55.35
33163;BME280;29282;45.656;11.302;2023-04-30T11:57:04;98442.84;;;18.27;55.26
33163;BME280;29282;45.656;11.302;2023-04-30T11:59:31;98437.38;;;18.27;55.36
33163;BME280;29282;45.656;11.302;2023-04-30T12:01:56;98429.97;;;18.28;55.33
33163;BME280;29282;45.656;11.302;2023-04-30T12:04:23;98433.50;;;18.28;55.14
33163;BME280;29282;45.656;11.302;2023-04-30T12:06:48;98430.78;;;18.28;55.48
33163;BME280;29282;45.656;11.302;2023-04-30T12:09:14;98428.81;;;18.29;55.33
33163;BME280;29282;45.656;11.302;2023-04-30T12:11:40;98432.84;;;18.31;55.25
33163;BME280;29282;45.656;11.302;2023-04-30T12:14:09;98429.63;;;18.29;55.24
33163;BME280;29282;45.656;11.302;2023-04-30T12:16:42;98422.53;;;18.28;55.41
33163;BME280;29282;45.656;11.302;2023-04-30T12:19:09;98433.50;;;18.28;55.33
33163;BME280;29282;45.656;11.302;2023-04-30T12:21:35;98428.81;;;18.29;55.33
33163;BME280;29282;45.656;11.302;2023-04-30T12:24:01;98428.03;;;18.28;55.25
33163;BME280;29282;45.656;11.302;2023-04-30T12:26:34;98419.47;;;18.30;55.20
33163;BME280;29282;45.656;11.302;2023-04-30T12:29:03;98416.41;;;18.31;55.30
33163;BME280;29282;45.656;11.302;2023-04-30T12:31:31;98416.84;;;18.34;55.58
33163;BME280;29282;45.656;11.302;2023-04-30T12:33:57;98409.59;;;18.38;55.58
33163;BME280;29282;45.656;11.302;2023-04-30T12:36:29;98418.63;;;18.38;55.31
33163;BME280;29282;45.656;11.302;2023-04-30T12:39:05;98409.25;;;18.39;55.42
33163;BME280;29282;45.656;11.302;2023-04-30T12:44:17;98407.97;;;18.37;55.35
33163;BME280;29282;45.656;11.302;2023-04-30T12:46:43;98409.59;;;18.38;55.35
33163;BME280;29282;45.656;11.302;2023-04-30T12:49:11;98406.38;;;18.36;55.56
33163;BME280;29282;45.656;11.302;2023-04-30T12:51:37;98398.94;;;18.36;55.41
33163;BME280;29282;45.656;11.302;2023-04-30T12:54:05;98401.69;;;18.36;55.43
33163;BME280;29282;45.656;11.302;2023-04-30T12:56:31;98394.59;;;18.35;55.60
33163;BME280;29282;45.656;11.302;2023-04-30T12:58:56;98392.66;;;18.36;55.51
33163;BME280;29282;45.656;11.302;2023-04-30T13:01:22;98395.41;;;18.36;55.51
33163;BME280;29282;45.656;11.302;2023-04-30T13:03:50;98389.91;;;18.36;55.38
33163;BME280;29282;45.656;11.302;2023-04-30T13:06:15;98385.22;;;18.36;55.57